Airfield :
LOGIN :

Register | Disclaimer

   EN    FR    IT 

 










Legend :    VFR   Marginal VFR   IFR   Intensive IFR   Very Intensive IFR
Visi :
Ceiling :
>= 8 km
>= 3000ft
5 to 8 km
1000 to 3000 ft
1500m to 5 km
500 to 1000 ft
800 to 1500m
200 to 500 ft
< 800m
< 200 ft
Symbols :   Thunderstorms  Fog  Heavy snow  Heavy precipitations  Wind > 20 kt
SIGMETs :     Misc.  Thunderstorms  Icing  Turbulence  Mountain Waves  Volcanic Ashes







- Airport Elevation : 306 ft
- IATA code : EMA
- Download approach charts


EGNX - Nottingham East Midlands

CURRENT METAR :
  • 191950Z 24014KT CAVOK 14/05 Q1011

EXPIRED METARs :
  • 191920Z 24019KT CAVOK 14/04 Q1011
  • 191850Z 24011KT CAVOK 14/05 Q1011
  • 191820Z 25017KT CAVOK 15/04 Q1010
  • 191750Z 25018KT CAVOK 15/02 Q1009
  • 191720Z 25020KT CAVOK 16/04 Q1009

TAF AMD TAF EGNX
Valid from the 19 at 18:00 until the 20 at 18:00 UTC


191800Z 1918/2018 25018G28KT 9999 SCT030
BECMG 1918/1921 21008KT
BECMG 1923/2002 7000 -RADZ BKN012
TEMPO 2003/2018 4000 RA BKN007
BECMG 2011/2014 22017G30KT
PROB30
TEMPO 2015/2018 23028G40KT
ATIS : +44 1332 852 852 (ext 3201)
No reported NOTAMs for that airfield.
2 SIGMETs reported for the London FIR (EGTT) :
 
Severe turbulence
EGTT SIGMET 13 VALID 191800/192100 EGRR
EGTT LONDON FIR SEV TURB FCST NW OF LINE N5347 W00530 - N5500 E00440 SFC/FL060 MOV N 10KT WKN=
Severe mountain waves
EGTT SIGMET 12 VALID 191700/192100 EGRR
EGTT LONDON FIR SEV MTW FCST WI N5500 W00530 - N5500 W00100 - N5500 E00020 - N5312 E00223 - N5147 W00338 - N5239 W00530 - N5500 W00530 FL030/250 STNR NC=



MET'MAP, your aeronautical weather chart ! - Copyright ORBIFLY December 2007 - Disclaimer

ORBIFLY MET'MAP TEAM :

Programming & Development : Alexandra Zaïnal
Concept & Development : Baudouin d'Aumeries
Co-Development & Prog : Marc-Olivier Méhu
Technical & hardware support : Manuel Goepfert

Contact : metmap@orbifly.com




SOURCES & CREDITS :

   NOAA